Time;durP1;ratioP1;P1;durP2;ratioP2;P2;SDS_P1;SDS_P2;PMS_P1;PMS_P2;Temp;Humidity;BMP_temperature;BMP_pressure;BME280_temperature;BME280_humidity;BME280_pressure;Samples;Min_cycle;Max_cycle;Signal;HPM_P1;HPM_P2
2021/06/28 00:00:17;;;;;;;2.10;2.00;;;23.40;99.90;;;;;;5110401;28;20951;-69
2021/06/28 00:02:44;;;;;;;2.87;2.67;;;23.40;99.90;;;;;;5092938;28;20443;-70
2021/06/28 00:05:13;;;;;;;2.57;2.17;;;23.30;99.90;;;;;;5095726;28;20443;-70
2021/06/28 00:07:41;;;;;;;1.80;1.70;;;23.30;99.90;;;;;;5104009;28;20459;-69
2021/06/28 00:10:10;;;;;;;2.30;1.90;;;23.30;99.90;;;;;;5092276;28;20465;-70
2021/06/28 00:12:37;;;;;;;2.30;2.10;;;23.30;99.90;;;;;;5106242;28;20783;-69
2021/06/28 00:15:07;;;;;;;2.27;2.07;;;23.30;99.90;;;;;;5102656;28;20757;-70
2021/06/28 00:17:34;;;;;;;2.00;1.90;;;23.30;99.90;;;;;;5103507;28;20781;-69
2021/06/28 00:20:00;;;;;;;2.97;2.77;;;23.20;99.90;;;;;;5093583;28;20431;-69
2021/06/28 00:22:27;;;;;;;2.38;2.05;;;23.20;99.90;;;;;;5095305;28;20467;-69
2021/06/28 00:24:55;;;;;;;4.00;2.70;;;23.20;99.90;;;;;;5092168;28;20202;-69
2021/06/28 00:27:23;;;;;;;2.27;2.17;;;23.20;99.90;;;;;;5091682;28;20466;-69
2021/06/28 00:29:50;;;;;;;3.17;2.88;;;23.20;99.90;;;;;;5097807;28;20454;-69
2021/06/28 00:32:17;;;;;;;2.88;2.67;;;23.10;99.90;;;;;;5104675;28;20185;-68
2021/06/28 00:34:44;;;;;;;2.63;2.43;;;23.10;99.90;;;;;;5099199;28;20201;-68
2021/06/28 00:37:10;;;;;;;3.37;3.10;;;23.10;99.90;;;;;;5101792;28;20935;-68
2021/06/28 00:39:37;;;;;;;2.70;2.50;;;23.10;99.90;;;;;;5091472;28;20827;-69
2021/06/28 00:42:06;;;;;;;2.47;2.27;;;23.10;99.90;;;;;;5091767;28;20963;-69
2021/06/28 00:44:33;;;;;;;2.30;2.10;;;23.10;99.90;;;;;;5096386;28;20438;-68
2021/06/28 00:46:59;;;;;;;4.15;2.40;;;23.10;99.90;;;;;;5092962;28;20197;-68
2021/06/28 00:49:26;;;;;;;2.20;2.00;;;23.00;99.90;;;;;;5102360;28;20209;-68
2021/06/28 00:51:57;;;;;;;2.50;2.28;;;23.00;99.90;;;;;;5092533;28;20207;-68
2021/06/28 00:54:24;;;;;;;2.83;2.60;;;23.00;99.90;;;;;;5100868;28;20533;-68
2021/06/28 00:56:51;;;;;;;3.55;2.90;;;23.00;99.90;;;;;;5092329;28;20197;-68
2021/06/28 00:59:21;;;;;;;2.53;2.33;;;23.00;99.90;;;;;;5106541;28;20232;-69
2021/06/28 01:01:47;;;;;;;2.72;2.53;;;22.90;99.90;;;;;;5098210;28;20217;-68
2021/06/28 01:04:14;;;;;;;3.05;2.70;;;22.80;99.90;;;;;;5091802;28;20216;-68
2021/06/28 01:06:41;;;;;;;3.33;2.93;;;22.90;99.90;;;;;;5108172;28;20408;-69
2021/06/28 01:09:08;;;;;;;2.50;2.30;;;22.90;99.90;;;;;;5091185;28;20436;-68
2021/06/28 01:11:34;;;;;;;2.60;2.40;;;22.90;99.90;;;;;;5094982;28;20458;-69
2021/06/28 01:14:02;;;;;;;2.38;1.90;;;23.90;99.90;;;;;;5096265;28;20461;-68
2021/06/28 01:16:30;;;;;;;3.67;2.70;;;22.90;99.90;;;;;;5111792;28;20534;-68
2021/06/28 01:18:57;;;;;;;2.35;2.15;;;22.80;99.90;;;;;;5104405;28;20219;-68
2021/06/28 01:21:27;;;;;;;2.85;2.60;;;22.80;99.90;;;;;;5104967;28;20689;-69
2021/06/28 01:23:56;;;;;;;2.92;2.65;;;22.80;99.90;;;;;;5091209;28;20204;-69
2021/06/28 01:26:22;;;;;;;3.15;2.65;;;22.80;99.90;;;;;;5091022;28;20202;-68
2021/06/28 01:28:49;;;;;;;2.72;2.53;;;22.90;99.90;;;;;;5098116;28;20201;-68
2021/06/28 01:31:16;;;;;;;3.00;2.80;;;22.80;99.90;;;;;;5111133;28;20207;-68
2021/06/28 01:33:43;;;;;;;7.38;3.10;;;22.70;99.90;;;;;;5103341;28;20455;-69
2021/06/28 01:36:10;;;;;;;3.70;3.35;;;22.80;99.90;;;;;;5090555;28;20198;-68
2021/06/28 01:38:37;;;;;;;3.13;2.83;;;22.70;99.90;;;;;;5095582;28;20193;-69
2021/06/28 01:41:05;;;;;;;3.55;3.25;;;22.70;99.90;;;;;;5095041;28;20224;-68
2021/06/28 01:43:32;;;;;;;5.13;2.72;;;22.70;99.90;;;;;;5098176;28;20196;-69
2021/06/28 01:45:59;;;;;;;3.30;3.10;;;22.70;99.90;;;;;;5095756;28;20247;-68
2021/06/28 01:48:25;;;;;;;3.67;3.20;;;22.70;99.90;;;;;;5113779;28;20628;-69
2021/06/28 01:50:53;;;;;;;3.65;2.88;;;22.60;99.90;;;;;;5115599;28;20434;-69
2021/06/28 01:53:20;;;;;;;3.03;2.73;;;22.60;99.90;;;;;;5104706;28;20199;-69
2021/06/28 01:55:47;;;;;;;2.83;2.63;;;22.60;99.90;;;;;;5103801;28;20461;-69
2021/06/28 01:58:18;;;;;;;3.37;3.07;;;22.60;99.90;;;;;;5111072;28;20239;-69
2021/06/28 02:00:49;;;;;;;3.15;2.80;;;22.60;99.90;;;;;;5095078;28;20462;-69
2021/06/28 02:03:18;;;;;;;3.47;2.80;;;22.60;99.90;;;;;;5098598;28;20236;-69
2021/06/28 02:05:48;;;;;;;3.33;3.03;;;22.60;99.90;;;;;;5096810;28;20209;-69
2021/06/28 02:08:16;;;;;;;3.45;2.60;;;22.60;99.90;;;;;;5097532;28;20203;-69
2021/06/28 02:10:48;;;;;;;3.13;2.85;;;22.50;99.90;;;;;;5114120;28;20188;-69
2021/06/28 02:13:16;;;;;;;5.05;2.90;;;22.50;99.90;;;;;;5106671;28;20197;-68
2021/06/28 02:15:43;;;;;;;2.67;2.47;;;22.50;99.90;;;;;;5094612;28;20197;-69
2021/06/28 02:18:10;;;;;;;3.03;2.73;;;22.50;99.90;;;;;;5098266;28;20594;-69
2021/06/28 02:20:36;;;;;;;4.60;2.72;;;22.40;99.90;;;;;;5103412;27;20450;-68
2021/06/28 02:23:22;;;;;;;2.37;2.27;;;22.50;99.90;;;;;;5114903;28;20201;-69
2021/06/28 02:25:51;;;;;;;3.35;2.58;;;22.40;99.90;;;;;;5103459;28;20470;-69
2021/06/28 02:28:19;;;;;;;2.93;2.73;;;22.40;99.90;;;;;;5111493;28;20205;-69
2021/06/28 02:30:45;;;;;;;2.70;2.50;;;22.40;99.90;;;;;;5102250;28;20451;-69
2021/06/28 02:33:12;;;;;;;3.40;3.10;;;22.40;99.90;;;;;;5112067;28;20201;-69
2021/06/28 02:35:39;;;;;;;2.58;2.38;;;22.40;99.90;;;;;;5104738;28;20209;-68
2021/06/28 02:38:06;;;;;;;2.88;2.67;;;22.40;99.90;;;;;;5096606;28;20198;-69
2021/06/28 02:40:33;;;;;;;2.60;2.40;;;22.40;99.90;;;;;;5106125;28;20205;-69
2021/06/28 02:43:00;;;;;;;3.35;3.15;;;22.40;99.90;;;;;;5113106;28;20213;-68
2021/06/28 02:45:28;;;;;;;3.85;2.97;;;22.30;99.90;;;;;;5112035;28;20193;-68
2021/06/28 02:47:55;;;;;;;3.55;2.90;;;22.30;99.90;;;;;;5111367;28;20192;-69
2021/06/28 02:50:21;;;;;;;3.17;2.88;;;22.30;99.90;;;;;;5102952;28;20205;-68
2021/06/28 02:52:48;;;;;;;2.95;2.67;;;22.30;99.90;;;;;;5101281;28;20212;-68
2021/06/28 02:55:15;;;;;;;3.58;3.28;;;22.20;99.90;;;;;;5096412;28;20208;-68
2021/06/28 02:57:42;;;;;;;2.67;2.47;;;22.30;99.90;;;;;;5096445;28;20232;-69
2021/06/28 03:00:12;;;;;;;3.42;3.13;;;22.30;99.90;;;;;;5097456;28;20212;-69
2021/06/28 03:02:40;;;;;;;4.18;3.53;;;22.20;99.90;;;;;;5114435;28;20220;-69
2021/06/28 03:05:08;;;;;;;2.47;2.28;;;22.30;99.90;;;;;;5109243;28;20192;-69
2021/06/28 03:07:36;;;;;;;3.00;2.80;;;22.20;99.90;;;;;;5106252;28;20200;-69
2021/06/28 03:10:05;;;;;;;2.85;2.35;;;22.20;99.90;;;;;;5110896;28;20196;-68
2021/06/28 03:12:32;;;;;;;3.65;3.35;;;22.20;99.90;;;;;;5096242;28;20210;-68
2021/06/28 03:14:58;;;;;;;2.88;2.67;;;22.20;99.90;;;;;;5093276;28;20200;-68
2021/06/28 03:17:25;;;;;;;3.83;3.53;;;22.20;99.90;;;;;;5105060;28;20198;-69
2021/06/28 03:19:53;;;;;;;3.15;2.95;;;22.10;99.90;;;;;;5110391;28;20198;-68
2021/06/28 03:22:20;;;;;;;3.05;2.85;;;22.10;99.90;;;;;;5113623;28;20221;-68
2021/06/28 03:24:46;;;;;;;3.40;3.10;;;22.10;99.90;;;;;;5113092;28;20200;-68
2021/06/28 03:27:13;;;;;;;3.05;2.75;;;22.10;99.90;;;;;;5104327;28;20201;-68
2021/06/28 03:29:40;;;;;;;3.58;2.80;;;22.10;99.90;;;;;;5102039;28;20227;-69
2021/06/28 03:32:08;;;;;;;3.50;3.20;;;22.10;99.90;;;;;;5096472;28;20630;-68
2021/06/28 03:34:34;;;;;;;3.22;3.03;;;22.10;99.90;;;;;;5092704;28;20638;-69
2021/06/28 03:37:03;;;;;;;3.70;2.95;;;22.10;99.90;;;;;;5098440;28;20493;-68
2021/06/28 03:39:30;;;;;;;4.00;3.70;;;22.10;99.90;;;;;;5107785;28;20205;-68
2021/06/28 03:41:57;;;;;;;2.88;2.67;;;22.70;99.90;;;;;;5108975;28;20777;-68
2021/06/28 03:44:24;;;;;;;3.78;3.47;;;22.00;99.90;;;;;;5094569;28;20201;-68
2021/06/28 03:46:51;;;;;;;3.10;2.90;;;22.00;99.90;;;;;;5104738;28;20198;-69
2021/06/28 03:49:17;;;;;;;3.65;2.92;;;22.00;99.90;;;;;;5092866;28;20200;-69
2021/06/28 03:51:44;;;;;;;4.13;2.92;;;22.00;99.90;;;;;;5108247;28;20533;-69
2021/06/28 03:54:12;;;;;;;2.97;2.40;;;22.00;99.90;;;;;;5113250;28;20201;-70
2021/06/28 03:56:39;;;;;;;2.90;2.70;;;22.00;99.90;;;;;;5100055;28;20558;-69
2021/06/28 03:59:06;;;;;;;2.72;2.50;;;22.00;99.90;;;;;;5098814;28;20227;-69
2021/06/28 04:01:32;;;;;;;2.50;2.30;;;22.00;99.90;;;;;;5094839;28;20224;-68
2021/06/28 04:03:59;;;;;;;4.78;2.85;;;22.00;99.90;;;;;;5102006;28;20210;-68
2021/06/28 04:06:26;;;;;;;3.15;2.85;;;22.00;99.90;;;;;;5090405;28;20216;-69
2021/06/28 04:08:52;;;;;;;2.22;2.10;;;21.90;99.90;;;;;;5101787;28;20193;-69
2021/06/28 04:11:20;;;;;;;3.70;2.65;;;21.60;99.90;;;;;;5101796;28;20205;-68
2021/06/28 04:13:47;;;;;;;5.95;3.33;;;21.90;99.90;;;;;;5112806;28;20212;-69
2021/06/28 04:16:14;;;;;;;2.55;2.35;;;21.90;99.90;;;;;;5099039;28;20197;-68
2021/06/28 04:18:41;;;;;;;3.03;2.83;;;21.90;99.90;;;;;;5094149;28;20190;-69
2021/06/28 04:21:08;;;;;;;3.22;3.00;;;21.90;99.90;;;;;;5106545;28;20213;-69
2021/06/28 04:23:34;;;;;;;3.10;2.45;;;21.80;99.90;;;;;;5111766;28;20220;-69
2021/06/28 04:26:01;;;;;;;3.00;2.80;;;21.80;99.90;;;;;;5098399;28;20198;-69
2021/06/28 04:28:30;;;;;;;3.15;2.95;;;21.80;99.90;;;;;;5093023;28;20554;-69
2021/06/28 04:30:57;;;;;;;4.65;2.80;;;21.80;99.90;;;;;;5092412;28;20199;-69
2021/06/28 04:33:23;;;;;;;2.88;2.67;;;21.80;99.90;;;;;;5091943;28;20212;-69
2021/06/28 04:35:50;;;;;;;3.17;2.90;;;21.80;99.90;;;;;;5098571;28;20205;-70
2021/06/28 04:38:17;;;;;;;3.20;2.90;;;21.80;99.90;;;;;;5091860;28;20197;-69
2021/06/28 04:40:44;;;;;;;2.85;2.60;;;21.90;99.90;;;;;;5093021;28;20224;-72
2021/06/28 04:43:11;;;;;;;3.05;2.83;;;21.80;99.90;;;;;;5092438;28;20217;-69
2021/06/28 04:45:39;;;;;;;5.22;3.28;;;21.80;99.90;;;;;;5105604;28;20220;-69
2021/06/28 04:48:06;;;;;;;3.22;2.50;;;21.80;99.90;;;;;;5099048;28;20200;-71
2021/06/28 04:50:33;;;;;;;2.63;2.20;;;21.80;99.90;;;;;;5098251;28;20201;-69
2021/06/28 04:53:00;;;;;;;2.83;2.63;;;21.80;99.90;;;;;;5091418;28;20238;-69
2021/06/28 04:55:27;;;;;;;2.88;2.67;;;21.80;99.90;;;;;;5096132;28;20531;-68
2021/06/28 04:57:55;;;;;;;3.38;3.05;;;21.80;99.90;;;;;;5091341;28;20229;-68
2021/06/28 05:00:24;;;;;;;4.15;2.88;;;21.80;99.90;;;;;;5095829;28;20199;-70
2021/06/28 05:02:53;;;;;;;2.90;2.60;;;21.80;99.90;;;;;;5091147;28;20240;-70
2021/06/28 05:05:20;;;;;;;4.70;3.42;;;21.80;99.90;;;;;;5096688;28;20216;-70
2021/06/28 05:07:47;;;;;;;3.22;2.92;;;21.80;99.90;;;;;;5111613;28;20211;-70
2021/06/28 05:10:15;;;;;;;3.17;2.90;;;21.80;99.90;;;;;;5105843;28;20592;-70
2021/06/28 05:12:43;;;;;;;3.20;3.00;;;21.80;99.90;;;;;;5091651;28;20204;-70
2021/06/28 05:15:12;;;;;;;3.00;2.80;;;21.80;99.90;;;;;;5091521;28;20216;-70
2021/06/28 05:17:39;;;;;;;2.97;2.78;;;21.70;99.90;;;;;;5091442;28;20194;-70
2021/06/28 05:20:10;;;;;;;3.33;2.70;;;21.70;99.90;;;;;;5099005;28;20282;-70
2021/06/28 05:22:37;;;;;;;4.40;4.10;;;21.80;99.90;;;;;;5092421;28;20228;-70
2021/06/28 05:25:04;;;;;;;5.10;3.97;;;21.80;99.90;;;;;;5092704;28;20202;-70
2021/06/28 05:27:33;;;;;;;3.45;3.15;;;21.70;99.90;;;;;;5111114;28;20192;-70
2021/06/28 05:30:00;;;;;;;3.28;3.08;;;21.70;99.90;;;;;;5097288;28;20291;-70
2021/06/28 05:32:27;;;;;;;3.83;3.53;;;21.50;99.90;;;;;;5096979;28;20197;-70
2021/06/28 05:34:54;;;;;;;3.65;3.30;;;21.90;99.90;;;;;;5106917;28;20194;-70
2021/06/28 05:37:22;;;;;;;3.08;2.83;;;22.10;99.90;;;;;;5091857;28;20197;-70
2021/06/28 05:39:49;;;;;;;2.85;2.65;;;22.20;99.90;;;;;;5091379;28;20237;-70
2021/06/28 05:42:16;;;;;;;4.68;2.75;;;22.40;99.90;;;;;;5106523;28;20219;-70
2021/06/28 05:44:43;;;;;;;3.00;2.80;;;22.60;99.90;;;;;;5107901;28;20207;-70
2021/06/28 05:47:11;;;;;;;2.60;2.40;;;22.90;99.90;;;;;;5102011;28;20201;-70
2021/06/28 05:49:38;;;;;;;3.60;3.30;;;23.10;99.90;;;;;;5095169;28;20270;-71
2021/06/28 05:52:06;;;;;;;3.47;3.17;;;23.20;99.90;;;;;;5100835;28;20875;-70
2021/06/28 05:54:34;;;;;;;6.07;2.78;;;23.40;99.90;;;;;;5090618;28;20473;-71
2021/06/28 05:57:00;;;;;;;3.40;2.80;;;23.50;99.90;;;;;;5091058;28;20197;-71
2021/06/28 05:59:27;;;;;;;3.50;3.20;;;23.70;99.90;;;;;;5090620;28;20454;-71
2021/06/28 06:01:54;;;;;;;2.83;2.55;;;23.80;99.90;;;;;;5103347;28;20446;-70
2021/06/28 06:04:21;;;;;;;3.00;2.80;;;24.50;99.90;;;;;;5104609;28;20220;-71
2021/06/28 06:06:47;;;;;;;5.47;3.03;;;24.10;99.90;;;;;;5110640;28;20446;-71
2021/06/28 06:09:14;;;;;;;2.50;2.30;;;24.20;99.90;;;;;;5098627;28;20912;-71
2021/06/28 06:11:42;;;;;;;2.50;2.30;;;24.20;99.90;;;;;;5097542;28;20200;-70
2021/06/28 06:14:09;;;;;;;2.90;2.70;;;24.10;99.90;;;;;;5096287;28;20454;-70
2021/06/28 06:16:35;;;;;;;2.57;2.37;;;24.10;99.90;;;;;;5094877;28;20462;-70
2021/06/28 06:19:02;;;;;;;3.40;3.10;;;23.90;99.90;;;;;;5099313;28;20462;-68
2021/06/28 06:21:29;;;;;;;7.10;3.37;;;23.90;99.90;;;;;;5100294;28;20455;-67
2021/06/28 06:23:56;;;;;;;3.90;3.60;;;23.80;99.90;;;;;;5113648;28;20474;-69
2021/06/28 06:26:22;;;;;;;4.30;3.97;;;23.70;99.90;;;;;;5113803;28;20451;-70
2021/06/28 06:28:51;;;;;;;6.17;3.17;;;23.60;99.90;;;;;;5115447;28;20787;-69
2021/06/28 06:31:19;;;;;;;3.00;2.73;;;23.60;99.90;;;;;;5101728;28;20459;-68
2021/06/28 06:33:46;;;;;;;3.20;2.70;;;23.50;99.90;;;;;;5105849;28;20485;-69
2021/06/28 06:36:13;;;;;;;7.63;4.03;;;23.50;99.90;;;;;;5102876;28;20443;-68
2021/06/28 06:38:41;;;;;;;4.57;3.05;;;23.50;99.90;;;;;;5102805;28;20447;-68
2021/06/28 06:41:07;;;;;;;4.03;2.87;;;23.60;99.90;;;;;;5096736;28;20201;-68
2021/06/28 06:43:34;;;;;;;4.33;3.33;;;23.70;99.90;;;;;;5101593;28;20475;-70
2021/06/28 06:46:02;;;;;;;3.30;3.10;;;23.60;99.90;;;;;;5094783;28;20454;-70
2021/06/28 06:48:29;;;;;;;3.20;2.90;;;23.60;99.90;;;;;;5104189;28;20204;-71
2021/06/28 06:50:56;;;;;;;3.87;3.57;;;23.70;99.90;;;;;;5104760;28;20806;-70
2021/06/28 06:53:23;;;;;;;3.07;2.77;;;23.70;99.90;;;;;;5100537;28;20447;-71
2021/06/28 06:55:50;;;;;;;5.23;3.07;;;23.80;99.90;;;;;;5111569;28;20901;-71
2021/06/28 06:58:16;;;;;;;3.70;2.90;;;24.00;99.90;;;;;;5105149;28;20508;-71
2021/06/28 07:00:44;;;;;;;3.10;2.90;;;24.10;99.90;;;;;;5111931;28;20454;-70
2021/06/28 07:03:12;;;;;;;2.80;2.60;;;24.40;99.90;;;;;;5112677;28;20210;-69
2021/06/28 07:05:39;;;;;;;4.03;2.50;;;24.60;99.90;;;;;;5093761;28;20547;-71
2021/06/28 07:08:06;;;;;;;4.93;3.00;;;24.80;99.90;;;;;;5099707;28;20497;-70
2021/06/28 07:10:33;;;;;;;3.27;3.00;;;25.00;99.90;;;;;;5091697;28;20439;-71
2021/06/28 07:13:00;;;;;;;2.87;2.67;;;25.20;99.90;;;;;;5093518;28;20792;-70
2021/06/28 07:15:26;;;;;;;3.73;3.07;;;25.30;99.90;;;;;;5094902;28;20429;-70
2021/06/28 07:17:53;;;;;;;2.90;2.70;;;25.40;99.90;;;;;;5094548;28;20452;-70
2021/06/28 07:20:23;;;;;;;3.90;3.03;;;25.50;99.90;;;;;;5107442;28;20443;-70
2021/06/28 07:22:51;;;;;;;3.10;2.90;;;25.60;99.90;;;;;;5112359;28;20533;-70
2021/06/28 07:25:18;;;;;;;3.67;3.38;;;25.70;99.90;;;;;;5113453;28;20537;-71
2021/06/28 07:27:45;;;;;;;3.57;3.27;;;25.80;99.90;;;;;;5113942;28;20201;-71
2021/06/28 07:30:15;;;;;;;4.93;3.70;;;25.80;99.90;;;;;;5105925;28;20445;-70
2021/06/28 07:32:42;;;;;;;2.90;2.70;;;25.90;99.90;;;;;;5100465;28;20452;-70
2021/06/28 07:35:10;;;;;;;3.90;3.60;;;25.90;99.90;;;;;;5111977;28;20453;-70
2021/06/28 07:37:39;;;;;;;3.63;3.20;;;26.10;99.90;;;;;;5105082;28;20953;-70
2021/06/28 07:40:09;;;;;;;4.40;3.13;;;26.20;99.90;;;;;;5113330;28;20942;-71
2021/06/28 07:42:36;;;;;;;3.23;2.70;;;26.20;99.90;;;;;;5111793;28;20447;-70
2021/06/28 07:45:03;;;;;;;6.23;3.67;;;26.30;99.90;;;;;;5104962;28;20822;-71
2021/06/28 07:47:30;;;;;;;3.67;3.37;;;26.20;99.90;;;;;;5103168;28;20455;-70
2021/06/28 07:49:58;;;;;;;3.83;3.53;;;26.00;99.90;;;;;;5095868;28;20915;-70
2021/06/28 07:52:25;;;;;;;3.30;3.00;;;25.90;99.90;;;;;;5096188;28;20532;-70
2021/06/28 07:54:53;;;;;;;3.80;3.50;;;25.70;99.90;;;;;;5100165;28;20462;-70
2021/06/28 07:57:20;;;;;;;3.27;3.07;;;25.60;99.90;;;;;;5092694;28;20230;-70
2021/06/28 07:59:47;;;;;;;3.73;3.43;;;25.50;99.90;;;;;;5103844;28;20440;-70
2021/06/28 08:02:14;;;;;;;8.60;3.90;;;25.50;99.90;;;;;;5096512;28;20464;-70
2021/06/28 08:04:40;;;;;;;3.50;3.20;;;25.40;99.90;;;;;;5095655;28;20824;-70
2021/06/28 08:07:07;;;;;;;4.90;3.43;;;25.40;99.90;;;;;;5093379;28;20453;-70
2021/06/28 08:09:34;;;;;;;3.58;3.25;;;25.40;99.90;;;;;;5092497;28;20454;-70
2021/06/28 08:12:02;;;;;;;4.23;3.70;;;25.30;99.90;;;;;;5092746;28;20521;-69
2021/06/28 08:14:29;;;;;;;4.83;4.23;;;25.30;99.90;;;;;;5093514;28;20455;-68
2021/06/28 08:16:55;;;;;;;5.20;4.80;;;25.30;99.90;;;;;;5099681;28;20810;-69
2021/06/28 08:19:22;;;;;;;4.20;3.90;;;25.20;99.90;;;;;;5092756;28;20452;-69
2021/06/28 08:21:49;;;;;;;4.30;3.90;;;25.30;99.90;;;;;;5112340;28;20742;-69
2021/06/28 08:24:16;;;;;;;4.00;3.70;;;25.30;99.90;;;;;;5100010;28;20579;-69
2021/06/28 08:26:45;;;;;;;5.90;3.23;;;25.30;99.90;;;;;;5099445;28;20444;-69
2021/06/28 08:29:13;;;;;;;3.80;3.50;;;25.30;99.90;;;;;;5111106;28;20479;-69
2021/06/28 08:31:40;;;;;;;3.77;3.47;;;25.30;99.90;;;;;;5110551;28;20939;-69
2021/06/28 08:34:07;;;;;;;5.00;4.60;;;25.30;99.90;;;;;;5110151;28;20446;-70
2021/06/28 08:36:34;;;;;;;4.43;4.13;;;25.30;99.90;;;;;;5104675;28;22141;-70
2021/06/28 08:39:00;;;;;;;3.90;3.60;;;25.10;99.90;;;;;;5106384;28;20469;-69
2021/06/28 08:41:28;;;;;;;3.73;3.43;;;25.20;99.90;;;;;;5107022;28;20804;-69
2021/06/28 08:43:55;;;;;;;3.57;3.27;;;25.30;99.90;;;;;;5100684;28;20482;-69
2021/06/28 08:46:24;;;;;;;4.73;4.33;;;25.20;99.90;;;;;;5111471;28;20499;-70
2021/06/28 08:48:51;;;;;;;4.23;3.83;;;25.20;99.90;;;;;;5109316;28;20453;-70
2021/06/28 08:51:20;;;;;;;5.13;4.63;;;25.00;99.90;;;;;;5107603;28;20442;-69
2021/06/28 08:53:52;;;;;;;4.10;3.80;;;25.20;99.90;;;;;;5101191;28;20998;-69
2021/06/28 08:56:19;;;;;;;5.43;4.93;;;25.20;99.90;;;;;;5104773;28;20495;-70
2021/06/28 08:58:46;;;;;;;4.90;4.50;;;25.30;99.90;;;;;;5097869;28;20487;-70
2021/06/28 09:01:13;;;;;;;4.00;3.70;;;25.20;99.90;;;;;;5099170;28;20959;-69
2021/06/28 09:03:41;;;;;;;4.40;4.10;;;25.30;99.90;;;;;;5095456;28;20817;-69
2021/06/28 09:06:10;;;;;;;4.63;4.23;;;25.30;99.90;;;;;;5102282;28;20447;-69
2021/06/28 09:08:38;;;;;;;4.63;4.23;;;25.40;99.90;;;;;;5110050;28;20474;-69
2021/06/28 09:11:15;;;;;;;7.13;5.10;;;25.60;99.90;;;;;;5108534;28;20470;-70
2021/06/28 09:13:44;;;;;;;5.87;5.37;;;25.70;99.90;;;;;;5110454;28;20447;-69
2021/06/28 09:16:17;;;;;;;5.80;5.40;;;25.90;99.90;;;;;;5091553;28;20452;-69
2021/06/28 09:18:57;;;;;;;5.00;4.60;;;25.90;99.90;;;;;;5091900;28;20420;-69
2021/06/28 09:21:27;;;;;;;6.40;5.80;;;25.90;99.90;;;;;;5105749;28;20766;-69
2021/06/28 09:23:55;;;;;;;5.20;4.80;;;25.90;99.90;;;;;;5111953;28;20478;-69
2021/06/28 09:26:26;;;;;;;5.23;4.80;;;25.90;99.90;;;;;;5103533;28;20473;-69
2021/06/28 09:28:55;;;;;;;5.90;5.40;;;26.00;99.90;;;;;;5094276;28;20919;-69
2021/06/28 09:31:33;;;;;;;6.17;5.67;;;26.00;99.90;;;;;;5108832;28;20940;-70
2021/06/28 09:34:14;;;;;;;6.60;5.83;;;26.00;99.90;;;;;;5109618;28;20451;-69
2021/06/28 09:36:46;;;;;;;5.93;5.43;;;26.10;99.90;;;;;;5110676;28;20446;-69
2021/06/28 09:39:21;;;;;;;6.43;5.93;;;26.10;99.90;;;;;;5111814;28;20490;-69
2021/06/28 09:41:48;;;;;;;5.60;5.10;;;26.30;99.90;;;;;;5111982;28;20659;-70
2021/06/28 09:44:15;;;;;;;6.57;5.63;;;26.40;99.90;;;;;;5102843;28;20479;-69
2021/06/28 09:46:42;;;;;;;5.47;5.07;;;26.40;99.90;;;;;;5090943;28;20445;-69
2021/06/28 09:49:16;;;;;;;6.30;5.80;;;26.40;99.90;;;;;;5092046;28;20437;-69
2021/06/28 09:51:43;;;;;;;4.90;4.50;;;26.40;99.90;;;;;;5097888;28;20558;-69
2021/06/28 09:54:19;;;;;;;4.97;4.53;;;26.40;99.90;;;;;;5092858;28;20455;-70
2021/06/28 09:56:48;;;;;;;6.20;5.67;;;26.40;99.90;;;;;;5094745;28;20422;-69
2021/06/28 09:59:23;;;;;;;5.40;4.90;;;26.40;99.90;;;;;;5095890;28;20570;-69
2021/06/28 10:02:09;;;;;;;5.60;5.20;;;26.20;99.90;;;;;;5096284;28;20458;-69
2021/06/28 10:04:42;;;;;;;5.63;5.13;;;26.30;99.90;;;;;;5096364;28;20207;-69
2021/06/28 10:07:20;;;;;;;4.97;4.57;;;26.20;99.90;;;;;;5107274;28;20928;-68
2021/06/28 10:10:03;;;;;;;6.60;5.53;;;26.10;99.90;;;;;;5116618;28;20467;-69
2021/06/28 10:12:30;;;;;;;5.73;5.33;;;26.10;99.90;;;;;;5101182;28;20800;-69
2021/06/28 10:14:57;;;;;;;4.80;4.50;;;26.10;99.90;;;;;;5094587;28;20437;-69
2021/06/28 10:17:24;;;;;;;5.45;4.95;;;26.00;99.90;;;;;;5094894;28;20458;-69
2021/06/28 10:19:52;;;;;;;5.87;5.37;;;26.00;99.90;;;;;;5103170;27;20201;-68
2021/06/28 10:22:19;;;;;;;6.17;5.67;;;26.10;99.90;;;;;;5109020;28;20463;-68
2021/06/28 10:24:46;;;;;;;5.10;4.80;;;26.10;99.90;;;;;;5096142;28;20482;-72
2021/06/28 10:27:13;;;;;;;6.40;5.43;;;26.10;99.90;;;;;;5094621;28;20450;-69
2021/06/28 10:29:39;;;;;;;5.37;4.93;;;26.20;99.90;;;;;;5112590;28;20534;-70
2021/06/28 10:32:09;;;;;;;6.97;6.23;;;26.20;99.90;;;;;;5111780;27;20472;-71
2021/06/28 10:34:36;;;;;;;5.57;5.07;;;26.30;99.90;;;;;;5094409;28;20433;-71
2021/06/28 10:37:31;;;;;;;5.97;5.47;;;26.40;99.90;;;;;;5094110;28;20457;-71
2021/06/28 10:39:59;;;;;;;6.35;5.75;;;26.40;99.90;;;;;;5112974;28;20442;-69
2021/06/28 10:42:30;;;;;;;5.28;4.88;;;26.50;99.90;;;;;;5098282;28;20197;-70
2021/06/28 10:44:57;;;;;;;6.10;5.60;;;26.40;99.90;;;;;;5097311;28;20659;-68
2021/06/28 10:47:24;;;;;;;8.20;5.50;;;26.50;99.90;;;;;;5098671;28;20201;-70
2021/06/28 10:49:52;;;;;;;7.93;5.67;;;26.50;99.90;;;;;;5107144;28;20458;-71
2021/06/28 10:52:50;;;;;;;10.45;6.88;;;26.40;99.90;;;;;;5105271;28;20486;-70
2021/06/28 10:55:41;;;;;;;7.68;5.45;;;26.50;99.90;;;;;;5107143;28;20605;-70
2021/06/28 10:58:31;;;;;;;6.20;5.33;;;26.50;99.90;;;;;;5102107;28;20670;-72
2021/06/28 11:01:08;;;;;;;6.37;5.77;;;26.40;99.90;;;;;;5097711;28;20450;-70
2021/06/28 11:03:35;;;;;;;6.00;5.40;;;26.60;99.90;;;;;;5095043;28;20459;-70
2021/06/28 11:06:24;;;;;;;6.13;5.53;;;26.60;99.90;;;;;;5102825;28;20449;-70
2021/06/28 11:09:01;;;;;;;5.65;5.25;;;26.50;99.90;;;;;;5104017;28;20443;-69
2021/06/28 11:11:54;;;;;;;6.13;5.63;;;26.60;99.90;;;;;;5093600;28;20959;-70
2021/06/28 11:14:41;;;;;;;5.43;5.03;;;26.50;99.90;;;;;;5110643;28;20450;-67
2021/06/28 11:17:09;;;;;;;5.50;5.10;;;26.40;99.90;;;;;;5093607;28;20940;-68
2021/06/28 11:19:55;;;;;;;4.87;4.50;;;26.60;99.90;;;;;;5103085;28;20656;-70
2021/06/28 11:22:43;;;;;;;5.03;4.63;;;26.60;99.90;;;;;;5094055;28;20472;-70
2021/06/28 11:25:17;;;;;;;5.60;5.20;;;26.60;99.90;;;;;;5101042;28;20491;-69
2021/06/28 11:27:45;;;;;;;5.40;5.00;;;26.60;99.90;;;;;;5112096;28;20451;-68
2021/06/28 11:30:21;;;;;;;6.43;5.93;;;26.60;99.90;;;;;;5093386;28;20447;-69
2021/06/28 11:33:05;;;;;;;4.97;4.53;;;26.50;99.90;;;;;;5097352;28;20540;-68
2021/06/28 11:35:44;;;;;;;5.70;5.30;;;26.40;99.90;;;;;;5098549;28;20904;-68
2021/06/28 11:38:17;;;;;;;5.90;5.40;;;26.50;99.90;;;;;;5102361;28;20457;-67
2021/06/28 11:40:51;;;;;;;6.90;5.57;;;26.40;99.90;;;;;;5104688;28;20449;-69
2021/06/28 11:43:37;;;;;;;4.90;4.50;;;26.40;99.90;;;;;;5109840;28;20430;-69
2021/06/28 11:46:04;;;;;;;7.20;5.40;;;26.40;99.90;;;;;;5093069;28;20451;-69
2021/06/28 11:48:33;;;;;;;5.60;5.20;;;26.40;99.90;;;;;;5096511;28;20480;-69
2021/06/28 11:51:00;;;;;;;5.30;4.90;;;26.40;99.90;;;;;;5095444;28;20445;-68
2021/06/28 11:53:27;;;;;;;5.57;5.13;;;26.30;99.90;;;;;;5111861;28;20448;-68
2021/06/28 11:55:56;;;;;;;5.47;4.90;;;26.30;99.90;;;;;;5112678;28;20536;-68
2021/06/28 11:58:25;;;;;;;10.68;5.20;;;26.80;99.90;;;;;;5100149;28;20489;-68
2021/06/28 12:01:05;;;;;;;5.80;5.27;;;26.30;99.90;;;;;;5096766;28;20624;-68
2021/06/28 12:03:39;;;;;;;5.40;5.00;;;26.30;99.90;;;;;;5092950;28;21018;-68
2021/06/28 12:06:08;;;;;;;7.00;5.47;;;26.30;99.90;;;;;;5092705;28;20536;-68
2021/06/28 12:08:34;;;;;;;5.50;5.00;;;26.30;99.90;;;;;;5099974;28;20467;-68
2021/06/28 12:11:04;;;;;;;6.57;5.87;;;26.20;99.90;;;;;;5110806;28;20442;-68
2021/06/28 12:13:32;;;;;;;6.07;5.57;;;26.40;99.90;;;;;;5100408;27;20437;-68
2021/06/28 12:16:17;;;;;;;5.70;5.20;;;26.40;99.90;;;;;;5112725;28;20954;-68
2021/06/28 12:18:44;;;;;;;6.40;5.20;;;26.40;99.90;;;;;;5110857;28;20447;-69
2021/06/28 12:21:11;;;;;;;5.70;5.30;;;26.40;99.90;;;;;;5105698;28;20461;-68
2021/06/28 12:23:38;;;;;;;6.53;5.10;;;26.40;99.90;;;;;;5102587;28;20944;-68
2021/06/28 12:26:14;;;;;;;6.63;5.93;;;26.40;99.90;;;;;;5102236;28;20480;-68
2021/06/28 12:28:41;;;;;;;7.27;6.67;;;26.30;99.90;;;;;;5096242;28;20455;-69
2021/06/28 12:31:15;;;;;;;5.30;4.90;;;26.30;99.90;;;;;;5092381;28;20469;-68
2021/06/28 12:33:42;;;;;;;5.73;5.23;;;26.30;99.90;;;;;;5092011;28;20772;-68
2021/06/28 12:36:09;;;;;;;8.43;7.57;;;26.30;99.90;;;;;;5093037;28;20449;-69
2021/06/28 12:38:36;;;;;;;5.73;5.33;;;26.20;99.90;;;;;;5095865;28;20470;-68
2021/06/28 12:41:04;;;;;;;6.03;5.53;;;26.10;99.90;;;;;;5100051;28;20461;-68
2021/06/28 12:43:32;;;;;;;7.67;5.67;;;26.30;99.90;;;;;;5093502;28;20298;-69
2021/06/28 12:45:59;;;;;;;5.85;5.35;;;26.30;99.90;;;;;;5102169;28;21009;-68
2021/06/28 12:48:28;;;;;;;6.60;6.00;;;26.40;99.90;;;;;;5107366;28;20590;-70
2021/06/28 12:50:56;;;;;;;6.63;5.68;;;26.30;99.90;;;;;;5110002;28;20435;-67
2021/06/28 12:53:23;;;;;;;6.00;5.50;;;26.40;99.90;;;;;;5091403;28;20663;-70
2021/06/28 12:55:51;;;;;;;7.00;5.40;;;26.40;99.90;;;;;;5102265;28;20444;-68